Williford, Arkansas
Current Conditions -  °F | °C
As of 3:35 AM on Thursday 18 Dec 2014 (Local Time) from KARG Reporting Station
Overcast Overcast  
Wind Chill: 31°   Ceiling: 3400
Heat Index: 36°   Visibility: 9mi
Dew Point: 30°   Wind: 6mph
Humidity: 81%   Direction: 70°ENE
Pressure: 30.25"   Gusts: NA
Location:  36.25°N, 91.36°W
Report Text: KARG 180935Z AUTO 07005KT 9SM BKN034 OVC045 02/M01 A3025 RMK AO1
Loading
Personal Weather Stations






























Interactive Weather Map New forecast layout! Learn more

10-Day Weather Forecast

Advertisements
Track Severe Weather on mobile